sensor_id;sensor_type;location;lat;lon;timestamp;P1;durP1;ratioP1;P2;durP2;ratioP2
5678;SDS011;2862;52.560;13.566;2023-04-23T00:09:54;24.27;;;7.10;;
5678;SDS011;2862;52.560;13.566;2023-04-23T00:20:01;25.33;;;7.23;;
5678;SDS011;2862;52.560;13.566;2023-04-23T00:30:05;23.67;;;7.20;;
5678;SDS011;2862;52.560;13.566;2023-04-23T00:40:10;26.53;;;7.90;;
5678;SDS011;2862;52.560;13.566;2023-04-23T00:50:14;29.07;;;7.57;;
5678;SDS011;2862;52.560;13.566;2023-04-23T01:00:18;29.87;;;8.90;;
5678;SDS011;2862;52.560;13.566;2023-04-23T01:10:21;24.57;;;7.30;;
5678;SDS011;2862;52.560;13.566;2023-04-23T01:20:26;24.80;;;7.10;;
5678;SDS011;2862;52.560;13.566;2023-04-23T01:30:32;27.07;;;7.50;;
5678;SDS011;2862;52.560;13.566;2023-04-23T01:40:35;22.80;;;7.00;;
5678;SDS011;2862;52.560;13.566;2023-04-23T01:50:40;23.63;;;8.07;;
5678;SDS011;2862;52.560;13.566;2023-04-23T02:00:44;23.53;;;7.67;;
5678;SDS011;2862;52.560;13.566;2023-04-23T02:10:49;26.33;;;7.30;;
5678;SDS011;2862;52.560;13.566;2023-04-23T02:20:52;30.80;;;7.53;;
5678;SDS011;2862;52.560;13.566;2023-04-23T02:30:58;28.57;;;8.30;;
5678;SDS011;2862;52.560;13.566;2023-04-23T02:41:01;28.53;;;8.57;;
5678;SDS011;2862;52.560;13.566;2023-04-23T02:51:06;31.33;;;11.10;;
5678;SDS011;2862;52.560;13.566;2023-04-23T03:01:12;29.43;;;11.27;;
5678;SDS011;2862;52.560;13.566;2023-04-23T03:11:17;31.90;;;12.17;;
5678;SDS011;2862;52.560;13.566;2023-04-23T03:21:21;26.60;;;9.97;;
5678;SDS011;2862;52.560;13.566;2023-04-23T03:31:26;29.67;;;11.30;;
5678;SDS011;2862;52.560;13.566;2023-04-23T03:41:31;30.17;;;12.23;;
5678;SDS011;2862;52.560;13.566;2023-04-23T03:51:36;31.13;;;12.87;;
5678;SDS011;2862;52.560;13.566;2023-04-23T04:01:39;27.57;;;12.03;;
5678;SDS011;2862;52.560;13.566;2023-04-23T04:11:44;29.00;;;12.57;;
5678;SDS011;2862;52.560;13.566;2023-04-23T04:21:49;32.43;;;13.37;;
5678;SDS011;2862;52.560;13.566;2023-04-23T04:31:54;31.47;;;12.20;;
5678;SDS011;2862;52.560;13.566;2023-04-23T04:41:57;30.90;;;11.87;;
5678;SDS011;2862;52.560;13.566;2023-04-23T04:52:04;34.27;;;11.70;;
5678;SDS011;2862;52.560;13.566;2023-04-23T05:02:08;27.97;;;12.17;;
5678;SDS011;2862;52.560;13.566;2023-04-23T05:12:12;25.40;;;11.53;;
5678;SDS011;2862;52.560;13.566;2023-04-23T05:22:16;28.40;;;10.97;;
5678;SDS011;2862;52.560;13.566;2023-04-23T05:32:21;29.23;;;10.90;;
5678;SDS011;2862;52.560;13.566;2023-04-23T05:42:24;27.20;;;11.87;;
5678;SDS011;2862;52.560;13.566;2023-04-23T05:52:29;28.50;;;10.93;;
5678;SDS011;2862;52.560;13.566;2023-04-23T06:02:34;30.00;;;10.70;;
5678;SDS011;2862;52.560;13.566;2023-04-23T06:12:39;31.73;;;11.30;;
5678;SDS011;2862;52.560;13.566;2023-04-23T06:22:43;21.80;;;8.20;;
5678;SDS011;2862;52.560;13.566;2023-04-23T06:32:48;26.80;;;11.87;;
5678;SDS011;2862;52.560;13.566;2023-04-23T06:42:52;23.30;;;9.03;;
5678;SDS011;2862;52.560;13.566;2023-04-23T06:53:25;25.60;;;8.80;;
5678;SDS011;2862;52.560;13.566;2023-04-23T07:03:28;22.87;;;8.50;;
5678;SDS011;2862;52.560;13.566;2023-04-23T07:13:32;25.67;;;8.33;;
5678;SDS011;2862;52.560;13.566;2023-04-23T07:23:36;17.87;;;4.80;;
5678;SDS011;2862;52.560;13.566;2023-04-23T07:33:40;22.20;;;4.63;;
5678;SDS011;2862;52.560;13.566;2023-04-23T07:43:44;26.13;;;10.20;;
5678;SDS011;2862;52.560;13.566;2023-04-23T07:53:48;17.97;;;5.07;;
5678;SDS011;2862;52.560;13.566;2023-04-23T08:03:56;22.17;;;5.93;;
5678;SDS011;2862;52.560;13.566;2023-04-23T08:14:02;34.77;;;15.20;;
5678;SDS011;2862;52.560;13.566;2023-04-23T08:24:06;23.23;;;7.83;;
5678;SDS011;2862;52.560;13.566;2023-04-23T08:34:10;23.80;;;7.67;;
5678;SDS011;2862;52.560;13.566;2023-04-23T08:44:16;22.57;;;7.40;;
5678;SDS011;2862;52.560;13.566;2023-04-23T08:54:25;27.10;;;9.10;;
5678;SDS011;2862;52.560;13.566;2023-04-23T09:04:28;23.07;;;7.50;;
5678;SDS011;2862;52.560;13.566;2023-04-23T09:14:33;23.37;;;8.40;;
5678;SDS011;2862;52.560;13.566;2023-04-23T09:24:39;24.57;;;8.60;;
5678;SDS011;2862;52.560;13.566;2023-04-23T09:34:44;24.93;;;11.27;;
5678;SDS011;2862;52.560;13.566;2023-04-23T09:44:49;27.20;;;8.33;;
5678;SDS011;2862;52.560;13.566;2023-04-23T09:54:59;23.60;;;8.10;;
5678;SDS011;2862;52.560;13.566;2023-04-23T10:05:13;25.87;;;9.33;;
5678;SDS011;2862;52.560;13.566;2023-04-23T10:15:25;22.70;;;3.83;;
5678;SDS011;2862;52.560;13.566;2023-04-23T10:25:31;19.63;;;3.83;;
5678;SDS011;2862;52.560;13.566;2023-04-23T10:35:36;16.90;;;2.70;;
5678;SDS011;2862;52.560;13.566;2023-04-23T10:45:40;24.60;;;9.83;;
5678;SDS011;2862;52.560;13.566;2023-04-23T10:55:44;23.33;;;7.83;;
5678;SDS011;2862;52.560;13.566;2023-04-23T11:05:48;13.17;;;1.20;;
5678;SDS011;2862;52.560;13.566;2023-04-23T11:26:15;17.33;;;2.80;;
5678;SDS011;2862;52.560;13.566;2023-04-23T11:36:21;20.73;;;4.03;;
5678;SDS011;2862;52.560;13.566;2023-04-23T11:46:24;21.57;;;5.60;;
5678;SDS011;2862;52.560;13.566;2023-04-23T11:56:29;21.50;;;5.93;;
5678;SDS011;2862;52.560;13.566;2023-04-23T12:06:33;22.90;;;7.10;;
5678;SDS011;2862;52.560;13.566;2023-04-23T12:16:38;21.67;;;5.97;;
5678;SDS011;2862;52.560;13.566;2023-04-23T12:26:43;23.50;;;7.20;;
5678;SDS011;2862;52.560;13.566;2023-04-23T12:36:48;23.50;;;6.20;;
5678;SDS011;2862;52.560;13.566;2023-04-23T12:46:56;22.13;;;4.23;;
5678;SDS011;2862;52.560;13.566;2023-04-23T12:57:01;29.03;;;9.00;;
5678;SDS011;2862;52.560;13.566;2023-04-23T13:07:05;17.10;;;2.70;;
5678;SDS011;2862;52.560;13.566;2023-04-23T13:17:11;15.03;;;1.30;;
5678;SDS011;2862;52.560;13.566;2023-04-23T13:27:14;15.10;;;1.70;;
5678;SDS011;2862;52.560;13.566;2023-04-23T13:37:18;15.97;;;1.87;;
5678;SDS011;2862;52.560;13.566;2023-04-23T13:47:21;27.90;;;1.27;;
5678;SDS011;2862;52.560;13.566;2023-04-23T13:57:25;15.83;;;1.47;;
5678;SDS011;2862;52.560;13.566;2023-04-23T14:07:28;22.43;;;5.00;;
5678;SDS011;2862;52.560;13.566;2023-04-23T14:17:33;18.30;;;2.47;;
5678;SDS011;2862;52.560;13.566;2023-04-23T14:27:38;15.97;;;2.43;;
5678;SDS011;2862;52.560;13.566;2023-04-23T14:37:44;21.50;;;2.20;;
5678;SDS011;2862;52.560;13.566;2023-04-23T14:47:47;17.70;;;2.00;;
5678;SDS011;2862;52.560;13.566;2023-04-23T14:57:52;15.93;;;2.10;;
5678;SDS011;2862;52.560;13.566;2023-04-23T15:07:55;19.10;;;2.93;;
5678;SDS011;2862;52.560;13.566;2023-04-23T15:18:00;16.50;;;2.00;;
5678;SDS011;2862;52.560;13.566;2023-04-23T15:28:03;14.83;;;0.77;;
5678;SDS011;2862;52.560;13.566;2023-04-23T15:38:09;13.40;;;0.50;;
5678;SDS011;2862;52.560;13.566;2023-04-23T15:48:12;16.17;;;0.90;;
5678;SDS011;2862;52.560;13.566;2023-04-23T15:58:17;16.43;;;1.07;;
5678;SDS011;2862;52.560;13.566;2023-04-23T16:08:20;24.17;;;7.07;;
5678;SDS011;2862;52.560;13.566;2023-04-23T16:18:24;14.70;;;0.80;;
5678;SDS011;2862;52.560;13.566;2023-04-23T16:28:31;17.47;;;0.87;;
5678;SDS011;2862;52.560;13.566;2023-04-23T16:38:35;15.83;;;1.37;;
5678;SDS011;2862;52.560;13.566;2023-04-23T16:48:38;18.60;;;1.17;;
5678;SDS011;2862;52.560;13.566;2023-04-23T16:58:48;26.20;;;2.93;;
5678;SDS011;2862;52.560;13.566;2023-04-23T17:08:53;18.00;;;2.50;;
5678;SDS011;2862;52.560;13.566;2023-04-23T17:18:59;14.13;;;0.73;;
5678;SDS011;2862;52.560;13.566;2023-04-23T17:29:02;26.00;;;8.80;;
5678;SDS011;2862;52.560;13.566;2023-04-23T17:39:06;15.13;;;1.17;;
5678;SDS011;2862;52.560;13.566;2023-04-23T17:49:09;16.30;;;1.77;;
5678;SDS011;2862;52.560;13.566;2023-04-23T17:59:13;16.83;;;1.70;;
5678;SDS011;2862;52.560;13.566;2023-04-23T18:09:17;17.13;;;2.60;;
5678;SDS011;2862;52.560;13.566;2023-04-23T18:19:21;15.50;;;1.20;;
5678;SDS011;2862;52.560;13.566;2023-04-23T18:29:24;16.90;;;2.70;;
5678;SDS011;2862;52.560;13.566;2023-04-23T18:39:31;16.63;;;2.27;;
5678;SDS011;2862;52.560;13.566;2023-04-23T18:49:36;20.90;;;4.67;;
5678;SDS011;2862;52.560;13.566;2023-04-23T18:59:42;24.67;;;7.37;;
5678;SDS011;2862;52.560;13.566;2023-04-23T19:09:45;19.23;;;3.13;;
5678;SDS011;2862;52.560;13.566;2023-04-23T19:19:49;17.27;;;2.93;;
5678;SDS011;2862;52.560;13.566;2023-04-23T19:29:55;16.17;;;2.70;;
5678;SDS011;2862;52.560;13.566;2023-04-23T19:39:59;20.07;;;2.90;;
5678;SDS011;2862;52.560;13.566;2023-04-23T19:50:01;21.57;;;3.70;;
5678;SDS011;2862;52.560;13.566;2023-04-23T20:00:06;17.77;;;3.70;;
5678;SDS011;2862;52.560;13.566;2023-04-23T20:10:13;20.70;;;3.40;;
5678;SDS011;2862;52.560;13.566;2023-04-23T20:20:19;17.13;;;3.10;;
5678;SDS011;2862;52.560;13.566;2023-04-23T20:30:22;19.27;;;4.97;;
5678;SDS011;2862;52.560;13.566;2023-04-23T20:40:27;16.07;;;2.20;;
5678;SDS011;2862;52.560;13.566;2023-04-23T20:50:34;16.37;;;2.83;;
5678;SDS011;2862;52.560;13.566;2023-04-23T21:00:39;21.87;;;3.83;;
5678;SDS011;2862;52.560;13.566;2023-04-23T21:10:42;17.30;;;3.70;;
5678;SDS011;2862;52.560;13.566;2023-04-23T21:20:47;16.80;;;3.07;;
5678;SDS011;2862;52.560;13.566;2023-04-23T21:30:51;18.10;;;2.87;;
5678;SDS011;2862;52.560;13.566;2023-04-23T21:40:56;18.47;;;3.20;;
5678;SDS011;2862;52.560;13.566;2023-04-23T21:50:59;16.07;;;2.80;;
5678;SDS011;2862;52.560;13.566;2023-04-23T22:01:03;18.63;;;3.03;;
5678;SDS011;2862;52.560;13.566;2023-04-23T22:11:07;16.53;;;3.40;;
5678;SDS011;2862;52.560;13.566;2023-04-23T22:21:11;15.63;;;3.10;;
5678;SDS011;2862;52.560;13.566;2023-04-23T22:31:17;16.40;;;3.20;;
5678;SDS011;2862;52.560;13.566;2023-04-23T22:41:22;20.40;;;3.53;;
5678;SDS011;2862;52.560;13.566;2023-04-23T22:51:26;20.33;;;3.17;;
5678;SDS011;2862;52.560;13.566;2023-04-23T23:01:32;17.80;;;4.03;;
5678;SDS011;2862;52.560;13.566;2023-04-23T23:11:35;19.07;;;4.77;;
5678;SDS011;2862;52.560;13.566;2023-04-23T23:21:39;18.57;;;3.87;;
5678;SDS011;2862;52.560;13.566;2023-04-23T23:31:43;17.93;;;4.40;;
5678;SDS011;2862;52.560;13.566;2023-04-23T23:41:47;21.70;;;4.37;;
5678;SDS011;2862;52.560;13.566;2023-04-23T23:51:50;17.73;;;4.50;;
